Terminal Aerodrome Forecast
Issued by NWS

Home | Current Version | Previous Version | Text Only | Print | Product List | Glossary On
Versions: 1 2 3 4 5 6 7 8 9 10 11 12 13 14 15 16 17 18 19 20 21 22 23 24 25 26 27 28 29 30 31 32 33 34 35 36
964
FTUS44 KFWD 262058 AAA
TAFGKY
TAF AMD
KGKY 262058Z 2621/2718 36015KT P6SM VCSH OVC035
      TEMPO 2621/2624 -RA BKN030
     FM270000 36007KT P6SM BKN060 BKN200=

USA.gov is the U.S. government's official web portal to all federal, state and local government web resources and services.